Time;durP1;ratioP1;P1;durP2;ratioP2;P2;SDS_P1;SDS_P2;PMS_P1;PMS_P2;Temp;Humidity;BMP_temperature;BMP_pressure;BME280_temperature;BME280_humidity;BME280_pressure;Samples;Min_cycle;Max_cycle;Signal;HPM_P1;HPM_P2
2022/09/27 00:01:55;;;;;;;11.00;8.67;;;13.00;99.90;;;;;;5054623;28;20233;-70
2022/09/27 00:04:22;;;;;;;10.63;8.90;;;13.00;99.90;;;;;;5054304;28;20711;-71
2022/09/27 00:06:49;;;;;;;11.47;9.60;;;13.00;99.90;;;;;;5054815;28;20718;-69
2022/09/27 00:09:16;;;;;;;13.33;9.97;;;13.00;99.90;;;;;;5069255;28;20308;-69
2022/09/27 00:11:43;;;;;;;14.53;9.63;;;13.00;99.90;;;;;;5074533;28;20682;-68
2022/09/27 00:14:12;;;;;;;14.37;9.20;;;13.00;99.90;;;;;;5074692;28;20211;-69
2022/09/27 00:16:42;;;;;;;12.07;9.20;;;13.00;99.90;;;;;;5074470;28;20295;-71
2022/09/27 00:19:12;;;;;;;13.17;9.13;;;13.00;99.90;;;;;;5066919;28;20704;-69
2022/09/27 00:21:39;;;;;;;12.23;9.63;;;13.00;99.90;;;;;;5050899;28;20217;-69
2022/09/27 00:24:06;;;;;;;14.00;9.93;;;12.90;99.90;;;;;;5054207;28;20219;-70
2022/09/27 00:26:33;;;;;;;13.47;10.17;;;12.90;99.90;;;;;;5053388;28;20292;-69
2022/09/27 00:29:00;;;;;;;14.43;9.43;;;12.80;99.90;;;;;;5052124;28;20421;-69
2022/09/27 00:31:29;;;;;;;13.37;10.23;;;12.80;99.90;;;;;;5054495;28;20695;-69
2022/09/27 00:33:59;;;;;;;13.00;10.13;;;12.90;99.90;;;;;;5052097;28;20325;-70
2022/09/27 00:36:27;;;;;;;12.60;9.70;;;12.80;99.90;;;;;;5052637;28;20201;-69
2022/09/27 00:38:55;;;;;;;12.73;9.63;;;12.80;99.90;;;;;;5053761;28;20287;-70
2022/09/27 00:41:24;;;;;;;13.30;10.10;;;12.80;99.90;;;;;;5049358;28;20678;-69
2022/09/27 00:43:53;;;;;;;12.90;10.17;;;12.80;99.90;;;;;;5053084;28;20304;-69
2022/09/27 00:46:27;;;;;;;14.00;10.27;;;12.80;99.90;;;;;;5053624;28;20719;-70
2022/09/27 00:49:05;;;;;;;13.33;10.43;;;12.80;99.90;;;;;;5051799;28;20201;-69
2022/09/27 00:51:35;;;;;;;15.43;10.03;;;12.80;99.90;;;;;;5051589;28;20300;-68
2022/09/27 00:54:03;;;;;;;13.07;10.40;;;12.80;99.90;;;;;;5053498;28;20194;-69
2022/09/27 00:56:32;;;;;;;14.13;11.17;;;12.80;99.90;;;;;;5053425;28;20571;-69
2022/09/27 00:59:05;;;;;;;15.77;11.20;;;12.80;99.90;;;;;;5053676;28;20723;-68
2022/09/27 01:01:32;;;;;;;12.50;10.20;;;12.80;99.90;;;;;;5051857;28;20214;-70
2022/09/27 01:04:05;;;;;;;13.73;11.23;;;12.70;99.90;;;;;;5053506;28;20300;-70
2022/09/27 01:06:32;;;;;;;15.37;10.77;;;12.70;99.90;;;;;;5053372;28;20194;-70
2022/09/27 01:08:59;;;;;;;15.40;10.63;;;12.70;99.90;;;;;;5053264;28;20300;-68
2022/09/27 01:11:38;;;;;;;15.23;11.10;;;12.70;99.90;;;;;;5053216;28;20571;-67
2022/09/27 01:14:28;;;;;;;13.10;10.37;;;12.70;99.90;;;;;;5052597;28;20292;-70
2022/09/27 01:17:02;;;;;;;15.40;12.07;;;12.70;99.90;;;;;;5052872;28;20197;-69
2022/09/27 01:19:50;;;;;;;14.93;11.93;;;12.70;99.90;;;;;;5053092;28;20280;-70
2022/09/27 01:22:24;;;;;;;16.87;11.90;;;12.60;99.90;;;;;;5052944;28;20645;-67
2022/09/27 01:25:00;;;;;;;15.37;11.77;;;12.60;99.90;;;;;;5052784;28;20193;-69
2022/09/27 01:28:03;;;;;;;17.47;12.33;;;12.60;99.90;;;;;;5052691;28;20594;-73
2022/09/27 01:30:41;;;;;;;16.07;11.70;;;12.60;99.90;;;;;;5051953;28;20818;-70
2022/09/27 01:33:23;;;;;;;14.63;11.23;;;12.60;99.90;;;;;;5052654;28;20328;-71
2022/09/27 01:36:08;;;;;;;16.83;12.20;;;12.60;99.90;;;;;;5052622;28;20308;-71
2022/09/27 01:38:43;;;;;;;17.47;12.77;;;12.70;99.90;;;;;;5052733;28;20276;-71
2022/09/27 01:41:18;;;;;;;17.60;13.00;;;12.70;99.90;;;;;;5052069;28;20320;-71
2022/09/27 01:43:51;;;;;;;17.67;13.50;;;12.70;99.90;;;;;;5052039;28;20359;-72
2022/09/27 01:46:23;;;;;;;20.63;14.10;;;12.70;99.90;;;;;;5052225;28;20280;-71
2022/09/27 01:48:51;;;;;;;18.97;13.70;;;12.60;99.90;;;;;;5052464;28;20193;-71
2022/09/27 01:51:22;;;;;;;17.70;13.77;;;12.60;99.90;;;;;;5052275;28;20292;-71
2022/09/27 01:53:52;;;;;;;16.83;13.67;;;12.60;99.90;;;;;;5052480;28;20664;-72
2022/09/27 01:56:24;;;;;;;19.17;14.33;;;12.60;99.90;;;;;;5051208;28;20198;-70
2022/09/27 01:58:55;;;;;;;18.67;13.60;;;12.60;99.90;;;;;;5052094;28;20194;-71
2022/09/27 02:01:26;;;;;;;20.90;13.43;;;12.60;99.90;;;;;;5051675;28;20235;-71
2022/09/27 02:03:56;;;;;;;16.37;12.97;;;12.60;99.90;;;;;;5052061;28;20189;-70
2022/09/27 02:06:28;;;;;;;17.30;12.97;;;12.60;99.90;;;;;;5051678;28;20307;-71
2022/09/27 02:09:00;;;;;;;18.07;13.93;;;12.70;99.90;;;;;;5052240;28;20185;-70
2022/09/27 02:11:27;;;;;;;18.57;14.47;;;12.70;99.90;;;;;;5051033;28;20220;-70
2022/09/27 02:14:00;;;;;;;20.27;14.00;;;12.70;99.90;;;;;;5052167;28;20624;-70
2022/09/27 02:16:40;;;;;;;19.40;13.10;;;12.70;99.90;;;;;;5051557;28;20224;-71
2022/09/27 02:19:12;;;;;;;17.40;13.90;;;12.70;99.90;;;;;;5051802;28;20196;-72
2022/09/27 02:21:48;;;;;;;20.13;16.13;;;12.70;99.90;;;;;;5052106;28;20632;-72
2022/09/27 02:24:24;;;;;;;19.57;14.83;;;12.70;99.90;;;;;;5051988;28;20551;-70
2022/09/27 02:27:00;;;;;;;23.67;16.23;;;12.70;99.90;;;;;;5051950;28;20288;-72
2022/09/27 02:29:37;;;;;;;19.57;14.83;;;12.70;99.90;;;;;;5051715;28;20193;-72
2022/09/27 02:32:06;;;;;;;20.83;15.47;;;12.70;99.90;;;;;;5051836;28;20231;-72
2022/09/27 02:34:36;;;;;;;20.97;15.30;;;12.60;99.90;;;;;;5051622;28;20645;-70
2022/09/27 02:37:03;;;;;;;22.87;15.73;;;12.60;99.90;;;;;;5049347;28;20201;-71
2022/09/27 02:39:30;;;;;;;22.20;15.23;;;12.60;99.90;;;;;;5051963;28;20635;-71
2022/09/27 02:41:58;;;;;;;21.87;16.17;;;12.60;99.90;;;;;;5051534;28;20703;-71
2022/09/27 02:44:27;;;;;;;21.63;16.20;;;12.70;99.90;;;;;;5051339;28;20205;-71
2022/09/27 02:47:08;;;;;;;22.30;16.43;;;12.70;99.90;;;;;;5051514;28;20306;-72
2022/09/27 02:49:49;;;;;;;23.33;17.30;;;12.60;99.90;;;;;;5051765;28;20189;-72
2022/09/27 02:52:27;;;;;;;23.70;16.97;;;12.60;99.90;;;;;;5031644;28;20281;-71
2022/09/27 02:55:07;;;;;;;21.67;16.57;;;12.60;99.90;;;;;;5031901;28;20624;-71
2022/09/27 02:57:44;;;;;;;23.47;16.83;;;12.60;99.90;;;;;;5034454;28;20698;-72
2022/09/27 03:00:16;;;;;;;28.20;18.67;;;12.60;99.90;;;;;;5035743;28;20186;-71
2022/09/27 03:02:53;;;;;;;24.87;18.13;;;12.60;99.90;;;;;;5035670;28;20564;-70
2022/09/27 03:05:24;;;;;;;25.37;16.67;;;12.60;99.90;;;;;;5042412;28;20284;-70
2022/09/27 03:07:51;;;;;;;28.70;18.10;;;12.60;99.90;;;;;;5055910;28;20189;-70
2022/09/27 03:10:20;;;;;;;29.80;20.20;;;12.60;99.90;;;;;;5055106;28;20209;-72
2022/09/27 03:12:47;;;;;;;31.33;19.10;;;12.60;99.90;;;;;;5055737;28;20654;-72
2022/09/27 03:15:14;;;;;;;29.80;20.70;;;12.60;99.90;;;;;;5055012;28;20235;-70
2022/09/27 03:17:41;;;;;;;29.37;19.30;;;12.50;99.90;;;;;;5055232;28;20300;-71
2022/09/27 03:20:09;;;;;;;29.73;20.17;;;12.50;99.90;;;;;;5053953;28;20292;-72
2022/09/27 03:22:37;;;;;;;29.17;20.50;;;12.50;99.90;;;;;;5055635;28;20229;-71
2022/09/27 03:25:04;;;;;;;35.03;21.87;;;12.50;99.90;;;;;;5055263;28;20216;-72
2022/09/27 03:27:31;;;;;;;33.10;23.37;;;12.50;99.90;;;;;;5055406;28;20295;-71
2022/09/27 03:29:58;;;;;;;32.57;21.60;;;12.50;99.90;;;;;;5052728;28;20213;-72
2022/09/27 03:32:25;;;;;;;28.67;21.17;;;12.50;99.90;;;;;;5055510;28;20541;-71
2022/09/27 03:34:53;;;;;;;31.30;21.73;;;12.50;99.90;;;;;;5055070;28;20243;-71
2022/09/27 03:37:22;;;;;;;33.43;22.63;;;12.50;99.90;;;;;;5055507;28;20668;-71
2022/09/27 03:39:49;;;;;;;34.43;22.67;;;12.50;99.90;;;;;;5055100;28;20709;-71
2022/09/27 03:42:16;;;;;;;32.27;21.67;;;12.50;99.90;;;;;;5054287;28;20278;-72
2022/09/27 03:44:43;;;;;;;34.63;22.67;;;12.60;99.90;;;;;;5053286;28;20259;-71
2022/09/27 03:47:10;;;;;;;39.10;24.50;;;12.60;99.90;;;;;;5054454;28;20216;-71
2022/09/27 03:49:37;;;;;;;35.63;23.40;;;12.60;99.90;;;;;;5054571;28;20305;-72
2022/09/27 03:52:03;;;;;;;38.80;25.03;;;12.60;99.90;;;;;;5054764;28;20203;-73
2022/09/27 03:54:32;;;;;;;34.13;22.93;;;12.60;99.90;;;;;;5055163;28;20289;-71
2022/09/27 03:56:59;;;;;;;39.63;25.47;;;12.60;99.90;;;;;;5054588;28;20209;-70
2022/09/27 03:59:25;;;;;;;39.80;26.13;;;12.60;99.90;;;;;;5054152;28;20225;-71
2022/09/27 04:01:53;;;;;;;46.60;29.00;;;12.60;99.90;;;;;;5054660;28;20649;-71
2022/09/27 04:04:20;;;;;;;45.43;27.93;;;12.60;99.90;;;;;;5054522;28;20209;-72
2022/09/27 04:06:48;;;;;;;47.47;28.20;;;12.60;99.90;;;;;;5054249;28;20296;-72
2022/09/27 04:09:14;;;;;;;44.33;27.33;;;12.60;99.90;;;;;;5052744;28;20255;-71
2022/09/27 04:11:43;;;;;;;45.10;27.87;;;12.60;99.90;;;;;;5054311;28;20304;-69
2022/09/27 04:14:11;;;;;;;46.40;26.70;;;12.70;99.90;;;;;;5052989;28;20206;-69
2022/09/27 04:16:38;;;;;;;39.60;27.47;;;12.70;99.90;;;;;;5054483;28;20724;-68
2022/09/27 04:19:06;;;;;;;41.37;26.20;;;12.70;99.90;;;;;;5054073;28;20205;-69
2022/09/27 04:21:33;;;;;;;42.53;26.43;;;12.80;99.90;;;;;;5053756;28;20220;-69
2022/09/27 04:24:00;;;;;;;39.33;25.40;;;12.80;99.90;;;;;;5053379;28;20224;-69
2022/09/27 04:26:27;;;;;;;47.20;27.83;;;12.80;99.90;;;;;;5054061;28;20303;-70
2022/09/27 04:28:55;;;;;;;45.00;27.20;;;12.80;99.90;;;;;;5053603;28;20245;-70
2022/09/27 04:31:23;;;;;;;46.53;27.93;;;12.80;99.90;;;;;;5054163;28;20663;-70
2022/09/27 04:33:49;;;;;;;47.10;26.97;;;12.80;99.90;;;;;;5053763;28;20308;-69
2022/09/27 04:36:27;;;;;;;52.27;29.33;;;12.80;99.90;;;;;;5054309;28;20292;-69
2022/09/27 04:38:54;;;;;;;54.70;29.83;;;12.90;99.90;;;;;;5053117;28;20227;-71
2022/09/27 04:41:22;;;;;;;52.07;29.00;;;12.80;99.90;;;;;;5053612;28;20296;-69
2022/09/27 04:43:50;;;;;;;58.60;31.83;;;12.80;99.90;;;;;;5053803;28;20206;-69
2022/09/27 04:46:19;;;;;;;58.53;33.17;;;12.70;99.90;;;;;;5053323;28;20200;-69
2022/09/27 04:48:46;;;;;;;57.73;32.40;;;12.70;99.90;;;;;;5053758;28;20300;-70
2022/09/27 04:51:15;;;;;;;49.10;29.60;;;12.70;99.90;;;;;;5053451;28;20237;-68
2022/09/27 04:53:42;;;;;;;53.90;31.50;;;12.70;99.90;;;;;;5052402;28;20614;-69
2022/09/27 04:56:09;;;;;;;53.00;30.80;;;12.70;99.90;;;;;;5053704;28;20561;-69
2022/09/27 04:58:35;;;;;;;52.33;30.63;;;12.70;99.90;;;;;;5053047;28;20296;-69
2022/09/27 05:01:03;;;;;;;52.83;30.73;;;12.70;99.90;;;;;;5052273;28;20293;-70
2022/09/27 05:03:32;;;;;;;51.07;30.27;;;12.70;99.90;;;;;;5049814;28;20688;-70
2022/09/27 05:05:59;;;;;;;53.53;30.80;;;12.80;99.90;;;;;;5050746;28;20205;-69
2022/09/27 05:08:26;;;;;;;58.83;31.67;;;12.80;99.90;;;;;;5050723;28;20205;-70
2022/09/27 05:10:54;;;;;;;59.20;33.37;;;12.90;99.90;;;;;;5051927;28;20479;-69
2022/09/27 05:13:21;;;;;;;54.10;31.43;;;12.80;99.90;;;;;;5051537;28;20194;-70
2022/09/27 05:15:48;;;;;;;57.27;32.53;;;12.80;99.90;;;;;;5051712;28;20578;-70
2022/09/27 05:18:16;;;;;;;56.10;33.50;;;12.80;99.90;;;;;;5049859;28;20711;-71
2022/09/27 05:20:45;;;;;;;59.63;32.47;;;12.80;99.90;;;;;;5046266;28;20212;-69
2022/09/27 05:23:12;;;;;;;55.67;32.37;;;12.70;99.90;;;;;;5051933;28;20582;-69
2022/09/27 05:25:39;;;;;;;63.80;32.50;;;12.70;99.90;;;;;;5052835;28;20305;-67
2022/09/27 05:28:07;;;;;;;56.73;33.77;;;12.70;99.90;;;;;;5052890;28;20598;-69
2022/09/27 05:30:35;;;;;;;59.93;34.10;;;12.80;99.90;;;;;;5052846;28;20741;-71
2022/09/27 05:33:02;;;;;;;52.70;31.27;;;12.80;99.90;;;;;;5052665;28;20202;-70
2022/09/27 05:35:28;;;;;;;57.13;31.53;;;12.80;99.90;;;;;;5052345;28;20644;-69
2022/09/27 05:37:58;;;;;;;52.27;30.93;;;12.80;99.90;;;;;;5052390;28;20719;-71
2022/09/27 05:40:26;;;;;;;50.77;29.73;;;12.90;99.90;;;;;;5052075;28;20256;-70
2022/09/27 05:42:53;;;;;;;49.47;30.63;;;12.90;99.90;;;;;;5051322;28;20259;-70
2022/09/27 05:45:22;;;;;;;50.70;30.07;;;12.90;99.90;;;;;;5052589;28;20244;-71
2022/09/27 05:47:56;;;;;;;55.23;32.97;;;13.00;99.90;;;;;;5051907;28;20205;-69
2022/09/27 05:50:23;;;;;;;50.00;29.47;;;13.00;99.90;;;;;;5052369;28;20236;-69
2022/09/27 05:52:50;;;;;;;52.23;30.03;;;13.10;99.90;;;;;;5052388;28;20577;-70
2022/09/27 05:55:18;;;;;;;48.70;28.20;;;13.10;99.90;;;;;;5052386;28;20241;-69
2022/09/27 05:57:55;;;;;;;51.40;29.77;;;13.10;99.90;;;;;;5050524;28;20642;-69
2022/09/27 06:00:22;;;;;;;51.60;30.60;;;13.10;99.90;;;;;;5051851;28;20190;-70
2022/09/27 06:02:54;;;;;;;50.50;29.83;;;13.10;99.90;;;;;;5052205;28;20313;-70
2022/09/27 06:05:22;;;;;;;60.53;32.53;;;13.20;99.90;;;;;;5052209;28;20189;-69
2022/09/27 06:07:49;;;;;;;49.47;30.00;;;13.20;99.90;;;;;;5051886;28;20205;-70
2022/09/27 06:10:18;;;;;;;52.37;31.53;;;13.20;99.90;;;;;;5050309;28;20221;-69
2022/09/27 06:12:45;;;;;;;55.07;32.43;;;13.30;99.90;;;;;;5050337;28;20288;-71
2022/09/27 06:15:13;;;;;;;57.43;32.70;;;13.30;99.90;;;;;;5051978;28;20295;-70
2022/09/27 06:17:40;;;;;;;51.57;30.80;;;13.40;99.90;;;;;;5051575;28;20206;-70
2022/09/27 06:20:08;;;;;;;58.17;34.33;;;13.40;99.90;;;;;;5052044;28;20297;-69
2022/09/27 06:22:36;;;;;;;63.00;35.80;;;13.40;99.90;;;;;;5051512;28;20695;-70
2022/09/27 06:25:03;;;;;;;61.97;35.10;;;13.40;99.90;;;;;;5050900;28;20644;-69
2022/09/27 06:27:31;;;;;;;64.33;37.50;;;13.40;99.90;;;;;;5051906;28;20566;-69
2022/09/27 06:29:58;;;;;;;57.07;34.43;;;13.40;99.90;;;;;;5051779;28;20231;-72
2022/09/27 06:32:25;;;;;;;65.97;37.13;;;13.40;99.90;;;;;;5051084;28;20625;-73
2022/09/27 06:34:52;;;;;;;67.57;35.83;;;13.50;99.90;;;;;;5051125;28;20772;-71
2022/09/27 06:37:18;;;;;;;64.13;36.23;;;13.40;99.90;;;;;;5051805;28;20216;-71
2022/09/27 06:39:47;;;;;;;67.40;34.47;;;13.50;99.90;;;;;;5050887;28;20656;-70
2022/09/27 06:42:15;;;;;;;66.23;35.77;;;13.50;99.90;;;;;;5051394;28;20208;-71
2022/09/27 06:44:43;;;;;;;66.30;35.07;;;13.60;99.90;;;;;;5051661;28;20207;-70
2022/09/27 06:47:10;;;;;;;75.23;37.53;;;13.60;99.90;;;;;;5051603;28;20256;-71
2022/09/27 06:49:38;;;;;;;69.73;36.47;;;13.70;99.90;;;;;;5050005;28;20205;-70
2022/09/27 06:52:05;;;;;;;65.90;34.27;;;13.70;99.90;;;;;;5047133;28;20216;-69
2022/09/27 06:54:32;;;;;;;65.57;34.70;;;13.70;99.90;;;;;;5051221;28;20208;-70
2022/09/27 06:56:59;;;;;;;71.10;36.53;;;13.80;99.90;;;;;;5051418;28;20236;-70
2022/09/27 07:02:12;;;;;;;60.67;32.43;;;13.70;99.90;;;;;;5051625;28;20187;-71
2022/09/27 07:04:38;;;;;;;70.83;35.30;;;13.80;99.90;;;;;;5051516;28;20209;-70
2022/09/27 07:07:05;;;;;;;69.63;34.00;;;13.80;99.90;;;;;;5048872;28;20213;-70
2022/09/27 07:09:32;;;;;;;71.70;36.87;;;13.80;99.90;;;;;;5048569;28;20316;-71
2022/09/27 07:11:59;;;;;;;67.90;34.70;;;13.80;99.90;;;;;;5050812;28;20719;-72
2022/09/27 07:14:26;;;;;;;63.07;34.47;;;13.90;99.90;;;;;;5051103;28;20202;-69
2022/09/27 07:16:53;;;;;;;91.67;39.07;;;13.90;99.90;;;;;;5049587;28;20217;-70
2022/09/27 07:19:21;;;;;;;105.73;38.37;;;13.90;99.90;;;;;;5051592;28;20209;-69
2022/09/27 07:21:51;;;;;;;90.50;40.00;;;13.90;99.90;;;;;;5049523;28;20292;-69
2022/09/27 07:24:18;;;;;;;81.17;38.80;;;13.90;99.90;;;;;;5051310;28;20711;-70
2022/09/27 07:26:46;;;;;;;83.30;38.13;;;13.80;99.90;;;;;;5050791;28;20292;-70
2022/09/27 07:29:13;;;;;;;81.37;38.17;;;13.90;99.90;;;;;;5051057;28;20205;-70
2022/09/27 07:31:41;;;;;;;86.27;38.97;;;13.90;99.90;;;;;;5051043;28;20640;-70
2022/09/27 07:34:10;;;;;;;122.23;42.60;;;13.90;99.90;;;;;;5050763;28;20327;-71
2022/09/27 07:36:38;;;;;;;129.13;45.90;;;14.00;99.90;;;;;;5050833;28;20205;-69
2022/09/27 07:39:05;;;;;;;89.30;39.97;;;14.00;99.90;;;;;;5051157;28;20201;-70
2022/09/27 07:41:32;;;;;;;91.00;39.33;;;14.00;99.90;;;;;;5050333;28;20666;-70
2022/09/27 07:43:59;;;;;;;98.60;41.33;;;14.00;99.90;;;;;;5053912;28;20683;-70
2022/09/27 07:46:26;;;;;;;101.60;39.40;;;14.00;99.90;;;;;;5054240;28;20202;-69
2022/09/27 07:48:53;;;;;;;116.87;41.53;;;14.10;99.90;;;;;;5053644;28;20211;-68
2022/09/27 07:51:20;;;;;;;85.80;38.33;;;14.10;99.90;;;;;;5054243;28;20285;-70
2022/09/27 07:53:48;;;;;;;84.70;38.50;;;14.10;99.90;;;;;;5054654;28;20209;-70
2022/09/27 07:56:15;;;;;;;130.27;40.50;;;14.10;99.90;;;;;;5054757;28;20698;-71
2022/09/27 07:58:42;;;;;;;123.17;39.90;;;14.10;99.90;;;;;;5054752;28;20608;-70
2022/09/27 08:01:09;;;;;;;198.27;46.17;;;14.10;99.90;;;;;;5053895;28;20212;-70
2022/09/27 08:03:36;;;;;;;108.60;39.07;;;14.00;99.90;;;;;;5054545;28;20695;-70
2022/09/27 08:06:04;;;;;;;225.20;45.60;;;14.00;99.90;;;;;;5054095;28;20288;-69
2022/09/27 08:08:31;;;;;;;287.07;51.10;;;14.10;99.90;;;;;;5053284;28;20651;-68
2022/09/27 08:10:59;;;;;;;299.00;51.23;;;14.10;99.90;;;;;;5050887;28;20288;-69
2022/09/27 08:13:26;;;;;;;87.77;37.40;;;14.10;99.90;;;;;;5054338;28;20632;-70
2022/09/27 08:15:53;;;;;;;120.27;39.80;;;14.10;99.90;;;;;;5054616;28;20292;-70
2022/09/27 08:18:23;;;;;;;90.53;37.63;;;14.20;99.90;;;;;;5053974;28;20267;-70
2022/09/27 08:20:49;;;;;;;88.43;35.77;;;14.20;99.90;;;;;;5052976;28;20391;-69
2022/09/27 08:23:16;;;;;;;86.90;33.93;;;14.30;99.90;;;;;;5053512;28;20259;-70
2022/09/27 08:25:43;;;;;;;102.73;37.13;;;14.30;99.90;;;;;;5054278;28;20328;-70
2022/09/27 08:28:12;;;;;;;74.50;34.53;;;14.30;99.90;;;;;;5054219;28;20670;-70
2022/09/27 08:30:38;;;;;;;76.67;32.70;;;14.40;99.90;;;;;;5053902;28;20212;-70
2022/09/27 08:33:05;;;;;;;72.77;32.40;;;14.50;99.90;;;;;;5053714;28;20300;-70
2022/09/27 08:35:33;;;;;;;70.27;32.30;;;14.50;99.90;;;;;;5052653;28;20664;-69
2022/09/27 08:38:01;;;;;;;69.87;31.83;;;14.50;99.90;;;;;;5054044;28;20208;-70
2022/09/27 08:40:35;;;;;;;59.43;29.87;;;14.60;99.90;;;;;;5053918;28;20308;-71
2022/09/27 08:43:11;;;;;;;66.23;30.60;;;14.60;99.90;;;;;;5052200;28;20299;-70
2022/09/27 08:45:46;;;;;;;67.23;29.33;;;14.70;99.90;;;;;;5053572;28;20195;-70
2022/09/27 08:48:15;;;;;;;65.03;30.00;;;14.70;99.90;;;;;;5053694;28;20617;-69
2022/09/27 08:50:45;;;;;;;53.63;28.23;;;14.80;99.90;;;;;;5053522;28;20292;-69
2022/09/27 08:53:20;;;;;;;53.70;28.40;;;14.80;99.90;;;;;;5053715;28;20639;-70
2022/09/27 08:55:49;;;;;;;65.43;30.30;;;14.90;99.90;;;;;;5051915;28;20212;-68
2022/09/27 08:58:23;;;;;;;62.33;29.90;;;14.90;99.90;;;;;;5052981;28;20205;-69
2022/09/27 09:00:54;;;;;;;72.13;32.70;;;14.90;99.90;;;;;;5053864;28;20623;-70
2022/09/27 09:03:24;;;;;;;53.80;28.40;;;14.90;99.90;;;;;;5053025;28;20253;-69
2022/09/27 09:06:05;;;;;;;57.03;28.83;;;14.90;99.90;;;;;;5053169;28;20280;-69
2022/09/27 09:08:40;;;;;;;47.70;26.13;;;14.90;99.90;;;;;;5051521;28;20583;-71
2022/09/27 09:14:32;;;;;;;58.97;28.80;;;15.00;99.90;;;;;;4972009;28;20196;-71
2022/09/27 09:17:08;;;;;;;46.87;25.73;;;15.10;99.90;;;;;;4972077;28;20585;-70
2022/09/27 09:19:55;;;;;;;45.20;25.00;;;15.10;99.90;;;;;;5019455;28;20211;-71
2022/09/27 09:22:40;;;;;;;44.80;25.00;;;15.20;99.90;;;;;;5051467;28;20293;-69
2022/09/27 09:25:29;;;;;;;43.83;24.10;;;15.20;99.90;;;;;;5049134;28;20723;-71
2022/09/27 09:28:10;;;;;;;45.33;26.03;;;15.30;99.90;;;;;;5052827;28;20288;-70
2022/09/27 09:30:45;;;;;;;47.30;24.73;;;15.30;99.90;;;;;;5051052;28;20197;-71
2022/09/27 09:33:23;;;;;;;38.87;23.83;;;15.30;99.90;;;;;;5052435;28;20599;-70
2022/09/27 09:35:57;;;;;;;45.37;24.43;;;15.40;99.90;;;;;;5052705;28;20186;-70
2022/09/27 09:38:29;;;;;;;39.77;23.57;;;15.40;99.90;;;;;;5035530;28;20194;-70
2022/09/27 09:41:00;;;;;;;41.27;24.07;;;15.40;99.90;;;;;;5052754;28;20232;-71
2022/09/27 09:43:33;;;;;;;39.63;23.80;;;15.40;99.90;;;;;;5052368;28;20221;-71
2022/09/27 09:46:07;;;;;;;65.40;31.77;;;15.40;99.90;;;;;;5053193;28;20300;-70
2022/09/27 09:48:42;;;;;;;92.90;38.57;;;15.40;99.90;;;;;;5052466;28;20200;-69
2022/09/27 09:51:15;;;;;;;87.57;37.70;;;15.30;99.90;;;;;;5049984;28;20311;-70
2022/09/27 09:53:46;;;;;;;96.87;39.50;;;15.30;99.90;;;;;;5052242;28;20281;-71
2022/09/27 09:56:20;;;;;;;113.40;43.43;;;15.30;99.90;;;;;;5052176;28;20190;-70
2022/09/27 09:58:54;;;;;;;104.47;42.10;;;15.30;99.90;;;;;;5052357;28;20288;-69
2022/09/27 10:01:24;;;;;;;100.17;41.77;;;15.30;99.90;;;;;;5052161;28;20284;-71
2022/09/27 10:03:54;;;;;;;102.90;44.00;;;15.30;99.90;;;;;;5051074;28;20305;-69
2022/09/27 10:06:21;;;;;;;130.10;47.60;;;15.20;99.90;;;;;;5052237;28;20300;-70
2022/09/27 10:08:53;;;;;;;121.27;48.07;;;15.10;99.90;;;;;;5052140;28;20206;-71
2022/09/27 10:11:23;;;;;;;115.60;47.57;;;15.10;99.90;;;;;;5051961;28;20189;-70
2022/09/27 10:13:51;;;;;;;117.67;46.10;;;15.00;99.90;;;;;;5052236;28;20204;-72
2022/09/27 10:16:20;;;;;;;99.10;42.07;;;15.10;99.90;;;;;;5048083;28;20721;-70
2022/09/27 10:18:49;;;;;;;126.17;48.23;;;15.10;99.90;;;;;;5051557;28;20722;-70
2022/09/27 10:21:20;;;;;;;108.03;44.67;;;15.10;99.90;;;;;;5052616;28;20246;-69
2022/09/27 10:24:05;;;;;;;105.43;45.07;;;15.10;99.90;;;;;;5052105;28;20209;-70
2022/09/27 10:26:33;;;;;;;121.70;48.73;;;15.10;99.90;;;;;;5051089;28;20647;-72
2022/09/27 10:29:15;;;;;;;119.47;47.87;;;15.10;99.90;;;;;;5050550;28;20288;-70
2022/09/27 10:31:46;;;;;;;126.10;49.00;;;15.10;99.90;;;;;;5051678;28;20239;-70
2022/09/27 10:34:20;;;;;;;134.87;50.30;;;15.10;99.90;;;;;;5049575;28;20699;-71
2022/09/27 10:37:02;;;;;;;109.47;47.40;;;15.10;99.90;;;;;;5050049;28;20280;-70
2022/09/27 10:39:30;;;;;;;117.23;48.43;;;15.10;99.90;;;;;;5048821;28;20243;-69
2022/09/27 10:41:56;;;;;;;125.80;48.87;;;15.20;99.90;;;;;;5051816;28;20244;-70
2022/09/27 10:44:27;;;;;;;127.43;50.67;;;15.10;99.90;;;;;;5051828;28;20227;-71
2022/09/27 10:46:56;;;;;;;133.57;50.53;;;15.10;99.90;;;;;;5051270;28;20205;-69
2022/09/27 10:49:27;;;;;;;162.17;55.87;;;15.10;99.90;;;;;;5051436;28;20216;-71
2022/09/27 10:51:58;;;;;;;138.20;51.60;;;15.10;99.90;;;;;;5051628;28;20599;-71
2022/09/27 10:54:28;;;;;;;120.57;49.63;;;15.00;99.90;;;;;;5052093;28;20205;-69
2022/09/27 10:56:58;;;;;;;132.43;52.17;;;15.00;99.90;;;;;;5051447;28;20288;-72
2022/09/27 10:59:29;;;;;;;125.40;50.83;;;15.10;99.90;;;;;;5051849;28;20617;-69
2022/09/27 11:01:57;;;;;;;114.53;48.90;;;15.10;99.90;;;;;;5049932;28;20202;-69
2022/09/27 11:04:28;;;;;;;128.03;49.97;;;15.10;99.90;;;;;;5051364;28;20240;-68
2022/09/27 11:07:08;;;;;;;123.63;50.73;;;15.10;99.90;;;;;;5051149;28;20621;-68
2022/09/27 11:09:47;;;;;;;122.77;50.37;;;15.10;99.90;;;;;;5051880;28;20637;-68
2022/09/27 11:12:17;;;;;;;130.80;50.30;;;15.10;99.90;;;;;;5051796;28;20216;-70
2022/09/27 11:14:46;;;;;;;109.00;45.77;;;15.10;99.90;;;;;;5051816;28;20298;-71
2022/09/27 11:17:17;;;;;;;106.33;45.87;;;15.10;99.90;;;;;;5051696;28;20210;-70
2022/09/27 11:20:06;;;;;;;132.07;51.33;;;15.20;99.90;;;;;;5055403;28;20276;-70
2022/09/27 11:23:03;;;;;;;117.70;49.47;;;15.20;99.90;;;;;;5053332;28;20267;-70
2022/09/27 11:25:38;;;;;;;105.83;45.87;;;15.20;99.90;;;;;;5055301;28;20227;-69
2022/09/27 11:28:20;;;;;;;120.93;49.17;;;15.10;99.90;;;;;;5060769;28;20223;-71
2022/09/27 11:30:54;;;;;;;126.37;50.63;;;15.10;99.90;;;;;;5066519;28;20629;-72
2022/09/27 11:33:43;;;;;;;110.53;48.47;;;15.10;99.90;;;;;;5055185;28;20670;-69
2022/09/27 11:36:14;;;;;;;108.17;45.13;;;15.10;99.90;;;;;;5055182;28;20650;-68
2022/09/27 11:38:57;;;;;;;127.97;48.10;;;15.20;99.90;;;;;;5055399;28;20285;-69
2022/09/27 11:41:39;;;;;;;99.90;46.57;;;15.30;99.90;;;;;;5055218;28;20236;-69
2022/09/27 11:44:30;;;;;;;116.63;48.53;;;15.20;99.90;;;;;;5054904;28;20210;-69
2022/09/27 11:47:05;;;;;;;78.27;40.60;;;15.30;99.90;;;;;;5032087;28;20209;-70
2022/09/27 11:49:51;;;;;;;82.60;40.07;;;15.30;99.90;;;;;;5054673;28;20798;-71
2022/09/27 11:52:35;;;;;;;73.27;37.00;;;15.40;99.90;;;;;;5055392;28;20288;-69
2022/09/27 11:55:20;;;;;;;72.90;37.93;;;15.50;99.90;;;;;;5054920;28;20190;-71
2022/09/27 11:57:55;;;;;;;78.23;39.53;;;15.60;99.90;;;;;;5055228;28;20285;-69
2022/09/27 12:00:23;;;;;;;66.07;35.90;;;15.60;99.90;;;;;;5055381;28;20667;-69
2022/09/27 12:03:26;;;;;;;67.30;34.80;;;15.70;99.90;;;;;;5053309;28;20293;-70
2022/09/27 12:06:05;;;;;;;66.17;33.67;;;15.70;99.90;;;;;;5048839;28;20209;-70
2022/09/27 12:08:50;;;;;;;63.20;35.57;;;15.80;99.90;;;;;;5053178;28;20630;-70
2022/09/27 12:11:22;;;;;;;63.27;36.03;;;15.90;99.90;;;;;;5054441;28;20191;-69
2022/09/27 12:13:54;;;;;;;72.40;39.23;;;15.90;99.90;;;;;;5054703;28;20642;-69
2022/09/27 12:16:23;;;;;;;62.63;35.53;;;16.00;99.90;;;;;;5054338;28;20280;-69
2022/09/27 12:18:53;;;;;;;61.23;33.83;;;16.10;99.90;;;;;;5054873;28;20572;-69
2022/09/27 12:21:20;;;;;;;56.97;32.37;;;16.10;99.90;;;;;;5054601;28;20302;-70
2022/09/27 12:23:49;;;;;;;57.73;31.83;;;16.10;99.90;;;;;;5054582;28;20203;-69
2022/09/27 12:26:22;;;;;;;55.27;30.93;;;16.20;99.90;;;;;;5054183;28;20207;-71
2022/09/27 12:28:54;;;;;;;57.33;30.27;;;16.30;99.90;;;;;;5053851;28;20290;-72
2022/09/27 12:31:24;;;;;;;54.07;30.37;;;16.30;99.90;;;;;;5054320;28;20274;-70
2022/09/27 12:34:03;;;;;;;50.70;28.80;;;16.30;99.90;;;;;;5053880;28;20333;-72
2022/09/27 12:36:36;;;;;;;45.23;27.00;;;16.30;99.90;;;;;;5054421;28;20196;-69
2022/09/27 12:39:10;;;;;;;55.87;29.60;;;16.40;99.90;;;;;;5054014;28;20191;-70
2022/09/27 12:41:43;;;;;;;55.13;29.23;;;16.40;99.90;;;;;;5053748;28;20231;-70
2022/09/27 12:44:11;;;;;;;43.73;26.03;;;16.30;99.90;;;;;;5054086;28;20636;-71
2022/09/27 12:46:50;;;;;;;41.30;25.80;;;16.30;99.90;;;;;;5053560;28;20210;-70
2022/09/27 12:49:28;;;;;;;41.17;24.93;;;16.30;99.90;;;;;;5054060;28;20208;-70
2022/09/27 12:51:59;;;;;;;46.40;26.47;;;16.40;99.90;;;;;;5053774;28;20250;-69